TimeCET,TemperatureF,Dew PointF,Humidity,Sea Level PressureIn,VisibilityMPH,Wind Direction,Wind SpeedMPH,Gust SpeedMPH,PrecipitationIn,Events,Conditions,WindDirDegrees,DateUTC
12:55 AM,23.0,21.2,93,29.89,-9999.0,North,-9999.0,-,N/A,,Clear,0,2012-12-03 23:55:00
1:00 AM,23,20,86,,9,SW,19.6,,,,,230,2012-12-04 00:00:00
1:55 AM,23.0,21.2,93,29.89,-9999.0,North,-9999.0,-,N/A,,Clear,0,2012-12-04 00:55:00
2:55 AM,23.0,17.6,80,29.86,-9999.0,North,-9999.0,-,N/A,,Clear,0,2012-12-04 01:55:00
3:55 AM,23.0,17.6,80,29.86,-9999.0,North,-9999.0,-,N/A,,Clear,0,2012-12-04 02:55:00
4:55 AM,24.8,24.8,100,29.86,-9999.0,North,-9999.0,-,N/A,,Scattered Clouds,0,2012-12-04 03:55:00
5:55 AM,24.8,24.8,100,29.80,0.0,North,-9999.0,-,N/A,Fog,Light Freezing Fog,0,2012-12-04 04:55:00
6:55 AM,28.4,28.4,100,29.80,0.0,North,-9999.0,-,N/A,Fog,Light Freezing Fog,0,2012-12-04 05:55:00
7:00 AM,28,28,98,,0,West,32.2,,,,,280,2012-12-04 06:00:00
7:55 AM,28.4,28.4,100,29.80,0.0,North,-9999.0,-,N/A,Fog,Light Freezing Fog,0,2012-12-04 06:55:00
8:55 AM,28.4,28.4,100,29.80,0.0,North,-9999.0,-,N/A,Fog,Light Freezing Fog,0,2012-12-04 07:55:00
9:55 AM,30.2,30.2,100,29.77,0.0,North,-9999.0,-,N/A,Fog,Light Freezing Fog,0,2012-12-04 08:55:00
10:55 AM,30.2,30.2,100,29.77,0.0,North,-9999.0,-,N/A,Fog,Light Freezing Fog,0,2012-12-04 09:55:00
11:55 AM,30.2,30.2,100,29.74,0.0,North,-9999.0,-,N/A,Fog,Light Freezing Fog,0,2012-12-04 10:55:00
12:55 PM,32.0,32.0,100,29.71,0.0,North,-9999.0,-,N/A,Fog,Light Freezing Fog,0,2012-12-04 11:55:00
1:00 PM,31,31,100,,0,West,34.5,,,,,260,2012-12-04 12:00:00
1:55 PM,32.0,32.0,100,29.74,0.0,North,-9999.0,-,N/A,Fog,Light Freezing Fog,0,2012-12-04 12:55:00
2:55 PM,32.0,32.0,100,29.71,-9999.0,North,-9999.0,-,N/A,Fog,Light Freezing Fog,0,2012-12-04 13:55:00
4:55 PM,32.0,32.0,100,29.68,-9999.0,North,-9999.0,-,N/A,Fog,Light Freezing Fog,0,2012-12-04 15:55:00
5:55 PM,30.2,30.2,100,29.65,-9999.0,North,-9999.0,-,N/A,Fog,Light Freezing Fog,0,2012-12-04 16:55:00
6:55 PM,30.2,30.2,100,29.62,-9999.0,North,-9999.0,-,N/A,Fog,Light Freezing Fog,0,2012-12-04 17:55:00
7:00 PM,29,29,100,,0,WSW,41.4,,,,,240,2012-12-04 18:00:00
7:55 PM,30.2,30.2,100,29.59,-9999.0,North,-9999.0,-,N/A,Fog,Light Freezing Fog,0,2012-12-04 18:55:00
8:26 PM,30.2,30.2,100,29.59,0.0,North,-9999.0,-,N/A,Fog-Snow-Thunderstorm,Thunderstorms and Snow,0,2012-12-04 19:26:00
8:55 PM,28.4,28.4,100,29.59,-9999.0,North,-9999.0,-,N/A,Fog,Light Freezing Fog,0,2012-12-04 19:55:00
9:55 PM,28.4,28.4,100,29.56,-9999.0,North,-9999.0,-,N/A,Fog,Light Freezing Fog,0,2012-12-04 20:55:00
10:55 PM,26.6,26.6,100,29.53,0.0,North,-9999.0,-,N/A,Fog,Light Freezing Fog,0,2012-12-04 21:55:00
11:55 PM,26.6,26.6,100,29.50,-9999.0,North,-9999.0,-,N/A,Fog,Light Freezing Fog,0,2012-12-04 22:55:00